KAZC

Colorado City Municipal Airport

Colorado City, Arizona, USA
METAR KAZC 251435Z AUTO 00000KT 10SM SCT110 13/04 A3016 RMK AO2
Observed Flight Rules
Sep-25 @ 14:35 UTC (31 minutes ago) Visual Flight Rules
Visibility Clouds
10 miles
  • Scattered at 11,000' AGL
Temperatures Readings
Current 13°C / 55°F
Dewpoint 4°C / 39°F
Humidity 55%
Altimeter 30.16" Hg
Pressure 1021 hPa
Elevation 1486
METAR KAZC 251435Z AUTO 00000KT 10SM SCT110 13/04 A3016 RMK AO2
Observed Flight Rules
Sep-25 @ 14:35 UTC
(31 minutes ago)
VFR
Clouds
  • Scattered at 11,000' AGL
Temperature Dewpoint
13°C / 55°F 4°C / 39°F
Humidity Altimeter Pressure
55% 30.16" Hg 1021 hPa